sensor_id;sensor_type;location;lat;lon;timestamp;P1;durP1;ratioP1;P2;durP2;ratioP2
32323;SDS011;25666;44.350;9.222;2022-12-29T00:01:23;9.55;;;4.13;;
32323;SDS011;25666;44.350;9.222;2022-12-29T00:03:49;8.95;;;4.28;;
32323;SDS011;25666;44.350;9.222;2022-12-29T00:06:14;11.20;;;4.93;;
32323;SDS011;25666;44.350;9.222;2022-12-29T00:08:40;7.10;;;4.07;;
32323;SDS011;25666;44.350;9.222;2022-12-29T00:11:06;7.78;;;4.13;;
32323;SDS011;25666;44.350;9.222;2022-12-29T00:13:38;15.73;;;5.35;;
32323;SDS011;25666;44.350;9.222;2022-12-29T00:16:23;11.18;;;4.72;;
32323;SDS011;25666;44.350;9.222;2022-12-29T00:18:49;11.23;;;6.20;;
32323;SDS011;25666;44.350;9.222;2022-12-29T00:21:15;9.48;;;4.57;;
32323;SDS011;25666;44.350;9.222;2022-12-29T00:24:00;9.30;;;5.07;;
32323;SDS011;25666;44.350;9.222;2022-12-29T00:26:45;10.82;;;4.15;;
32323;SDS011;25666;44.350;9.222;2022-12-29T00:29:31;12.13;;;5.00;;
32323;SDS011;25666;44.350;9.222;2022-12-29T00:32:15;10.73;;;4.45;;
32323;SDS011;25666;44.350;9.222;2022-12-29T00:34:59;10.38;;;4.03;;
32323;SDS011;25666;44.350;9.222;2022-12-29T00:37:34;10.80;;;4.60;;
32323;SDS011;25666;44.350;9.222;2022-12-29T00:40:26;7.05;;;4.18;;
32323;SDS011;25666;44.350;9.222;2022-12-29T00:43:10;5.25;;;4.07;;
32323;SDS011;25666;44.350;9.222;2022-12-29T00:45:54;15.23;;;4.43;;
32323;SDS011;25666;44.350;9.222;2022-12-29T00:48:20;10.98;;;3.53;;
32323;SDS011;25666;44.350;9.222;2022-12-29T00:51:06;9.02;;;4.03;;
32323;SDS011;25666;44.350;9.222;2022-12-29T00:53:32;8.52;;;4.45;;
32323;SDS011;25666;44.350;9.222;2022-12-29T00:55:58;11.65;;;5.00;;
32323;SDS011;25666;44.350;9.222;2022-12-29T00:58:28;14.82;;;3.97;;
32323;SDS011;25666;44.350;9.222;2022-12-29T01:01:04;7.82;;;3.78;;
32323;SDS011;25666;44.350;9.222;2022-12-29T01:03:32;11.50;;;4.22;;
32323;SDS011;25666;44.350;9.222;2022-12-29T01:06:02;9.65;;;4.15;;
32323;SDS011;25666;44.350;9.222;2022-12-29T01:08:29;6.57;;;3.75;;
32323;SDS011;25666;44.350;9.222;2022-12-29T01:10:58;6.95;;;4.40;;
32323;SDS011;25666;44.350;9.222;2022-12-29T01:13:28;9.50;;;5.22;;
32323;SDS011;25666;44.350;9.222;2022-12-29T01:15:55;11.10;;;4.43;;
32323;SDS011;25666;44.350;9.222;2022-12-29T01:18:21;10.10;;;4.05;;
32323;SDS011;25666;44.350;9.222;2022-12-29T01:20:47;10.50;;;4.53;;
32323;SDS011;25666;44.350;9.222;2022-12-29T01:23:13;12.20;;;5.35;;
32323;SDS011;25666;44.350;9.222;2022-12-29T01:25:38;8.98;;;4.07;;
32323;SDS011;25666;44.350;9.222;2022-12-29T01:28:04;8.00;;;4.18;;
32323;SDS011;25666;44.350;9.222;2022-12-29T01:30:29;7.43;;;4.40;;
32323;SDS011;25666;44.350;9.222;2022-12-29T01:32:55;15.50;;;4.85;;
32323;SDS011;25666;44.350;9.222;2022-12-29T01:35:21;10.43;;;4.63;;
32323;SDS011;25666;44.350;9.222;2022-12-29T01:37:46;9.70;;;4.88;;
32323;SDS011;25666;44.350;9.222;2022-12-29T01:40:12;12.57;;;4.88;;
32323;SDS011;25666;44.350;9.222;2022-12-29T01:42:38;9.27;;;5.20;;
32323;SDS011;25666;44.350;9.222;2022-12-29T01:45:10;8.02;;;4.70;;
32323;SDS011;25666;44.350;9.222;2022-12-29T01:47:44;14.23;;;5.95;;
32323;SDS011;25666;44.350;9.222;2022-12-29T01:52:56;6.88;;;3.80;;
32323;SDS011;25666;44.350;9.222;2022-12-29T01:55:33;11.52;;;4.80;;
32323;SDS011;25666;44.350;9.222;2022-12-29T01:58:02;8.45;;;4.30;;
32323;SDS011;25666;44.350;9.222;2022-12-29T02:00:30;9.82;;;4.03;;
32323;SDS011;25666;44.350;9.222;2022-12-29T02:02:55;10.57;;;4.97;;
32323;SDS011;25666;44.350;9.222;2022-12-29T02:07:58;15.55;;;5.32;;
32323;SDS011;25666;44.350;9.222;2022-12-29T02:10:26;8.05;;;4.47;;
32323;SDS011;25666;44.350;9.222;2022-12-29T02:12:55;10.75;;;4.43;;
32323;SDS011;25666;44.350;9.222;2022-12-29T02:15:25;14.05;;;5.07;;
32323;SDS011;25666;44.350;9.222;2022-12-29T02:18:47;10.93;;;5.00;;
32323;SDS011;25666;44.350;9.222;2022-12-29T02:26:44;10.98;;;4.85;;
32323;SDS011;25666;44.350;9.222;2022-12-29T02:37:40;13.38;;;5.78;;
32323;SDS011;25666;44.350;9.222;2022-12-29T02:43:22;22.63;;;6.18;;
32323;SDS011;25666;44.350;9.222;2022-12-29T02:48:43;13.45;;;4.43;;
32323;SDS011;25666;44.350;9.222;2022-12-29T02:51:18;6.07;;;3.72;;
32323;SDS011;25666;44.350;9.222;2022-12-29T02:53:50;6.68;;;3.80;;
32323;SDS011;25666;44.350;9.222;2022-12-29T02:56:37;11.13;;;4.85;;
32323;SDS011;25666;44.350;9.222;2022-12-29T02:59:03;22.65;;;6.13;;
32323;SDS011;25666;44.350;9.222;2022-12-29T03:12:52;7.85;;;4.93;;
32323;SDS011;25666;44.350;9.222;2022-12-29T03:23:39;9.05;;;4.85;;
32323;SDS011;25666;44.350;9.222;2022-12-29T03:26:10;9.75;;;4.43;;
32323;SDS011;25666;44.350;9.222;2022-12-29T03:28:40;12.52;;;5.50;;
32323;SDS011;25666;44.350;9.222;2022-12-29T03:31:14;7.78;;;4.63;;
32323;SDS011;25666;44.350;9.222;2022-12-29T03:33:41;13.85;;;5.45;;
32323;SDS011;25666;44.350;9.222;2022-12-29T03:36:16;17.02;;;5.70;;
32323;SDS011;25666;44.350;9.222;2022-12-29T03:39:02;7.70;;;5.00;;
32323;SDS011;25666;44.350;9.222;2022-12-29T03:41:35;8.38;;;4.80;;
32323;SDS011;25666;44.350;9.222;2022-12-29T03:44:02;11.57;;;4.97;;
32323;SDS011;25666;44.350;9.222;2022-12-29T03:46:33;11.75;;;4.97;;
32323;SDS011;25666;44.350;9.222;2022-12-29T03:48:58;11.43;;;5.72;;
32323;SDS011;25666;44.350;9.222;2022-12-29T03:51:24;11.90;;;4.70;;
32323;SDS011;25666;44.350;9.222;2022-12-29T03:53:50;11.23;;;5.00;;
32323;SDS011;25666;44.350;9.222;2022-12-29T03:56:15;10.60;;;5.47;;
32323;SDS011;25666;44.350;9.222;2022-12-29T03:58:41;12.00;;;5.28;;
32323;SDS011;25666;44.350;9.222;2022-12-29T04:01:13;13.10;;;5.07;;
32323;SDS011;25666;44.350;9.222;2022-12-29T04:03:39;14.23;;;5.72;;
32323;SDS011;25666;44.350;9.222;2022-12-29T04:06:05;15.60;;;5.40;;
32323;SDS011;25666;44.350;9.222;2022-12-29T04:08:50;11.73;;;6.10;;
32323;SDS011;25666;44.350;9.222;2022-12-29T04:11:16;14.20;;;5.20;;
32323;SDS011;25666;44.350;9.222;2022-12-29T04:13:42;9.30;;;5.18;;
32323;SDS011;25666;44.350;9.222;2022-12-29T04:16:11;13.60;;;5.18;;
32323;SDS011;25666;44.350;9.222;2022-12-29T04:18:37;10.18;;;5.13;;
32323;SDS011;25666;44.350;9.222;2022-12-29T04:21:03;14.93;;;5.45;;
32323;SDS011;25666;44.350;9.222;2022-12-29T04:23:32;12.75;;;6.03;;
32323;SDS011;25666;44.350;9.222;2022-12-29T04:26:01;11.38;;;5.30;;
32323;SDS011;25666;44.350;9.222;2022-12-29T04:28:28;16.70;;;5.47;;
32323;SDS011;25666;44.350;9.222;2022-12-29T04:31:29;15.95;;;6.00;;
32323;SDS011;25666;44.350;9.222;2022-12-29T04:33:55;8.38;;;4.78;;
32323;SDS011;25666;44.350;9.222;2022-12-29T04:36:23;13.00;;;5.50;;
32323;SDS011;25666;44.350;9.222;2022-12-29T04:38:49;12.80;;;4.68;;
32323;SDS011;25666;44.350;9.222;2022-12-29T04:41:14;20.20;;;6.55;;
32323;SDS011;25666;44.350;9.222;2022-12-29T04:43:40;9.82;;;5.05;;
32323;SDS011;25666;44.350;9.222;2022-12-29T04:46:14;17.35;;;5.30;;
32323;SDS011;25666;44.350;9.222;2022-12-29T04:48:46;11.38;;;5.20;;
32323;SDS011;25666;44.350;9.222;2022-12-29T04:51:32;16.98;;;5.57;;
32323;SDS011;25666;44.350;9.222;2022-12-29T04:53:58;15.55;;;6.07;;
32323;SDS011;25666;44.350;9.222;2022-12-29T04:56:26;14.82;;;6.40;;
32323;SDS011;25666;44.350;9.222;2022-12-29T04:58:51;9.45;;;5.90;;
32323;SDS011;25666;44.350;9.222;2022-12-29T05:01:19;15.20;;;5.47;;
32323;SDS011;25666;44.350;9.222;2022-12-29T05:03:45;16.30;;;6.00;;
32323;SDS011;25666;44.350;9.222;2022-12-29T05:06:10;10.80;;;5.75;;
32323;SDS011;25666;44.350;9.222;2022-12-29T05:08:36;12.80;;;5.53;;
32323;SDS011;25666;44.350;9.222;2022-12-29T05:11:02;8.95;;;5.63;;
32323;SDS011;25666;44.350;9.222;2022-12-29T05:13:27;11.30;;;5.80;;
32323;SDS011;25666;44.350;9.222;2022-12-29T05:15:53;11.48;;;6.03;;
32323;SDS011;25666;44.350;9.222;2022-12-29T05:18:21;14.82;;;5.72;;
32323;SDS011;25666;44.350;9.222;2022-12-29T05:20:47;8.38;;;5.10;;
32323;SDS011;25666;44.350;9.222;2022-12-29T05:23:13;9.13;;;4.75;;
32323;SDS011;25666;44.350;9.222;2022-12-29T05:25:40;14.68;;;5.43;;
32323;SDS011;25666;44.350;9.222;2022-12-29T05:28:15;9.38;;;5.15;;
32323;SDS011;25666;44.350;9.222;2022-12-29T05:30:50;13.93;;;5.10;;
32323;SDS011;25666;44.350;9.222;2022-12-29T05:33:17;14.77;;;5.32;;
32323;SDS011;25666;44.350;9.222;2022-12-29T05:35:44;10.82;;;4.90;;
32323;SDS011;25666;44.350;9.222;2022-12-29T05:38:09;16.38;;;5.10;;
32323;SDS011;25666;44.350;9.222;2022-12-29T05:40:36;21.48;;;6.43;;
32323;SDS011;25666;44.350;9.222;2022-12-29T05:43:06;10.73;;;5.60;;
32323;SDS011;25666;44.350;9.222;2022-12-29T05:45:39;13.10;;;5.47;;
32323;SDS011;25666;44.350;9.222;2022-12-29T05:48:23;14.00;;;6.20;;
32323;SDS011;25666;44.350;9.222;2022-12-29T05:51:06;18.20;;;5.97;;
32323;SDS011;25666;44.350;9.222;2022-12-29T05:53:44;16.15;;;6.47;;
32323;SDS011;25666;44.350;9.222;2022-12-29T05:56:09;10.30;;;6.05;;
32323;SDS011;25666;44.350;9.222;2022-12-29T05:58:35;12.80;;;6.15;;
32323;SDS011;25666;44.350;9.222;2022-12-29T06:03:42;12.60;;;6.37;;
32323;SDS011;25666;44.350;9.222;2022-12-29T06:06:07;17.60;;;6.55;;
32323;SDS011;25666;44.350;9.222;2022-12-29T06:08:35;9.88;;;5.78;;
32323;SDS011;25666;44.350;9.222;2022-12-29T06:11:02;14.85;;;5.72;;
32323;SDS011;25666;44.350;9.222;2022-12-29T06:13:27;12.57;;;5.93;;
32323;SDS011;25666;44.350;9.222;2022-12-29T06:15:55;14.93;;;6.32;;
32323;SDS011;25666;44.350;9.222;2022-12-29T06:18:24;12.60;;;6.07;;
32323;SDS011;25666;44.350;9.222;2022-12-29T06:20:50;10.18;;;5.55;;
32323;SDS011;25666;44.350;9.222;2022-12-29T06:23:17;16.02;;;5.72;;
32323;SDS011;25666;44.350;9.222;2022-12-29T06:25:44;11.70;;;6.00;;
32323;SDS011;25666;44.350;9.222;2022-12-29T06:28:12;20.10;;;5.43;;
32323;SDS011;25666;44.350;9.222;2022-12-29T06:30:38;31.75;;;7.03;;
32323;SDS011;25666;44.350;9.222;2022-12-29T06:33:03;13.73;;;5.55;;
32323;SDS011;25666;44.350;9.222;2022-12-29T06:35:29;11.48;;;5.40;;
32323;SDS011;25666;44.350;9.222;2022-12-29T06:37:55;22.92;;;6.53;;
32323;SDS011;25666;44.350;9.222;2022-12-29T06:40:21;17.33;;;6.30;;
32323;SDS011;25666;44.350;9.222;2022-12-29T06:43:00;10.90;;;6.35;;
32323;SDS011;25666;44.350;9.222;2022-12-29T06:45:44;14.10;;;7.03;;
32323;SDS011;25666;44.350;9.222;2022-12-29T06:48:10;14.00;;;6.05;;
32323;SDS011;25666;44.350;9.222;2022-12-29T06:50:36;12.60;;;5.85;;
32323;SDS011;25666;44.350;9.222;2022-12-29T06:53:02;11.70;;;7.82;;
32323;SDS011;25666;44.350;9.222;2022-12-29T06:55:28;13.85;;;6.25;;
32323;SDS011;25666;44.350;9.222;2022-12-29T06:57:55;18.55;;;6.45;;
32323;SDS011;25666;44.350;9.222;2022-12-29T07:00:26;15.00;;;6.30;;
32323;SDS011;25666;44.350;9.222;2022-12-29T07:02:52;10.32;;;5.70;;
32323;SDS011;25666;44.350;9.222;2022-12-29T07:05:20;14.60;;;6.05;;
32323;SDS011;25666;44.350;9.222;2022-12-29T07:13:10;12.30;;;6.00;;
32323;SDS011;25666;44.350;9.222;2022-12-29T07:15:36;20.00;;;6.65;;
32323;SDS011;25666;44.350;9.222;2022-12-29T07:18:05;17.15;;;6.68;;
32323;SDS011;25666;44.350;9.222;2022-12-29T07:20:31;17.25;;;6.72;;
32323;SDS011;25666;44.350;9.222;2022-12-29T07:22:57;18.52;;;7.13;;
32323;SDS011;25666;44.350;9.222;2022-12-29T07:25:23;13.18;;;6.22;;
32323;SDS011;25666;44.350;9.222;2022-12-29T07:27:49;13.88;;;6.50;;
32323;SDS011;25666;44.350;9.222;2022-12-29T07:30:15;15.23;;;6.13;;
32323;SDS011;25666;44.350;9.222;2022-12-29T07:40:47;14.63;;;7.13;;
32323;SDS011;25666;44.350;9.222;2022-12-29T07:43:13;18.80;;;5.93;;
32323;SDS011;25666;44.350;9.222;2022-12-29T07:45:45;13.30;;;6.25;;
32323;SDS011;25666;44.350;9.222;2022-12-29T08:26:43;11.15;;;6.90;;
32323;SDS011;25666;44.350;9.222;2022-12-29T08:29:08;16.08;;;6.45;;
32323;SDS011;25666;44.350;9.222;2022-12-29T08:34:01;16.70;;;7.43;;
32323;SDS011;25666;44.350;9.222;2022-12-29T08:36:28;14.13;;;7.25;;
32323;SDS011;25666;44.350;9.222;2022-12-29T08:38:55;20.85;;;6.63;;
32323;SDS011;25666;44.350;9.222;2022-12-29T08:46:30;17.05;;;7.55;;
32323;SDS011;25666;44.350;9.222;2022-12-29T08:48:56;19.92;;;8.35;;
32323;SDS011;25666;44.350;9.222;2022-12-29T08:51:25;16.58;;;7.82;;
32323;SDS011;25666;44.350;9.222;2022-12-29T08:53:51;22.17;;;10.95;;
32323;SDS011;25666;44.350;9.222;2022-12-29T08:56:17;24.45;;;10.65;;
32323;SDS011;25666;44.350;9.222;2022-12-29T08:58:48;29.90;;;11.63;;
32323;SDS011;25666;44.350;9.222;2022-12-29T09:01:16;26.92;;;12.50;;
32323;SDS011;25666;44.350;9.222;2022-12-29T09:03:42;25.70;;;11.43;;
32323;SDS011;25666;44.350;9.222;2022-12-29T09:06:08;28.63;;;12.32;;
32323;SDS011;25666;44.350;9.222;2022-12-29T09:08:34;25.33;;;13.45;;
32323;SDS011;25666;44.350;9.222;2022-12-29T09:11:10;32.78;;;14.90;;
32323;SDS011;25666;44.350;9.222;2022-12-29T09:13:36;30.27;;;15.82;;
32323;SDS011;25666;44.350;9.222;2022-12-29T09:16:02;24.48;;;13.52;;
32323;SDS011;25666;44.350;9.222;2022-12-29T09:18:28;25.08;;;13.38;;
32323;SDS011;25666;44.350;9.222;2022-12-29T09:21:01;24.98;;;12.13;;
32323;SDS011;25666;44.350;9.222;2022-12-29T09:23:29;23.42;;;11.93;;
32323;SDS011;25666;44.350;9.222;2022-12-29T09:25:55;23.23;;;10.85;;
32323;SDS011;25666;44.350;9.222;2022-12-29T09:28:21;17.95;;;9.25;;
32323;SDS011;25666;44.350;9.222;2022-12-29T09:30:47;18.70;;;9.60;;
32323;SDS011;25666;44.350;9.222;2022-12-29T09:33:13;21.95;;;10.68;;
32323;SDS011;25666;44.350;9.222;2022-12-29T09:35:43;23.42;;;9.55;;
32323;SDS011;25666;44.350;9.222;2022-12-29T09:38:10;23.52;;;9.07;;
32323;SDS011;25666;44.350;9.222;2022-12-29T09:40:36;26.63;;;10.45;;
32323;SDS011;25666;44.350;9.222;2022-12-29T09:43:05;16.48;;;9.27;;
32323;SDS011;25666;44.350;9.222;2022-12-29T09:45:42;29.15;;;10.48;;
32323;SDS011;25666;44.350;9.222;2022-12-29T09:48:17;23.05;;;9.80;;
32323;SDS011;25666;44.350;9.222;2022-12-29T09:50:49;20.27;;;9.68;;
32323;SDS011;25666;44.350;9.222;2022-12-29T09:53:20;20.48;;;9.15;;
32323;SDS011;25666;44.350;9.222;2022-12-29T09:55:54;36.90;;;13.50;;
32323;SDS011;25666;44.350;9.222;2022-12-29T10:03:36;21.55;;;10.25;;
32323;SDS011;25666;44.350;9.222;2022-12-29T10:06:13;19.10;;;9.10;;
32323;SDS011;25666;44.350;9.222;2022-12-29T10:08:50;22.95;;;11.80;;
32323;SDS011;25666;44.350;9.222;2022-12-29T10:25:23;21.33;;;11.55;;
32323;SDS011;25666;44.350;9.222;2022-12-29T10:27:51;24.63;;;11.38;;
32323;SDS011;25666;44.350;9.222;2022-12-29T10:30:20;18.85;;;9.93;;
32323;SDS011;25666;44.350;9.222;2022-12-29T10:32:50;24.45;;;10.52;;
32323;SDS011;25666;44.350;9.222;2022-12-29T10:35:21;22.52;;;11.07;;
32323;SDS011;25666;44.350;9.222;2022-12-29T10:40:26;31.10;;;12.18;;
32323;SDS011;25666;44.350;9.222;2022-12-29T10:42:58;22.80;;;12.60;;
32323;SDS011;25666;44.350;9.222;2022-12-29T10:45:25;22.65;;;10.90;;
32323;SDS011;25666;44.350;9.222;2022-12-29T10:50:27;28.80;;;10.70;;
32323;SDS011;25666;44.350;9.222;2022-12-29T10:52:54;26.33;;;10.77;;
32323;SDS011;25666;44.350;9.222;2022-12-29T10:55:26;20.48;;;9.52;;
32323;SDS011;25666;44.350;9.222;2022-12-29T10:57:55;28.55;;;10.18;;
32323;SDS011;25666;44.350;9.222;2022-12-29T11:00:27;16.13;;;7.40;;
32323;SDS011;25666;44.350;9.222;2022-12-29T11:06:03;19.27;;;6.75;;
32323;SDS011;25666;44.350;9.222;2022-12-29T11:09:01;20.55;;;6.78;;
32323;SDS011;25666;44.350;9.222;2022-12-29T11:11:34;13.48;;;5.50;;
32323;SDS011;25666;44.350;9.222;2022-12-29T11:16:57;19.77;;;6.07;;
32323;SDS011;25666;44.350;9.222;2022-12-29T11:19:28;18.80;;;8.35;;
32323;SDS011;25666;44.350;9.222;2022-12-29T11:22:03;16.50;;;7.55;;
32323;SDS011;25666;44.350;9.222;2022-12-29T11:24:49;19.63;;;8.13;;
32323;SDS011;25666;44.350;9.222;2022-12-29T11:29:48;18.20;;;6.45;;
32323;SDS011;25666;44.350;9.222;2022-12-29T11:32:22;13.80;;;4.82;;
32323;SDS011;25666;44.350;9.222;2022-12-29T11:34:49;14.80;;;6.05;;
32323;SDS011;25666;44.350;9.222;2022-12-29T11:37:16;8.88;;;4.60;;
32323;SDS011;25666;44.350;9.222;2022-12-29T11:39:56;18.38;;;4.28;;
32323;SDS011;25666;44.350;9.222;2022-12-29T11:42:38;12.38;;;3.75;;
32323;SDS011;25666;44.350;9.222;2022-12-29T11:45:13;14.07;;;4.43;;
32323;SDS011;25666;44.350;9.222;2022-12-29T11:47:48;15.90;;;4.10;;
32323;SDS011;25666;44.350;9.222;2022-12-29T11:50:30;15.07;;;3.75;;
32323;SDS011;25666;44.350;9.222;2022-12-29T11:52:58;8.50;;;4.53;;
32323;SDS011;25666;44.350;9.222;2022-12-29T11:55:25;14.18;;;4.70;;
32323;SDS011;25666;44.350;9.222;2022-12-29T11:57:53;12.95;;;4.57;;
32323;SDS011;25666;44.350;9.222;2022-12-29T12:00:22;12.00;;;4.72;;
32323;SDS011;25666;44.350;9.222;2022-12-29T12:02:59;13.95;;;4.90;;
32323;SDS011;25666;44.350;9.222;2022-12-29T12:11:13;16.77;;;3.80;;
32323;SDS011;25666;44.350;9.222;2022-12-29T12:17:10;9.65;;;4.00;;
32323;SDS011;25666;44.350;9.222;2022-12-29T12:19:53;11.68;;;2.95;;
32323;SDS011;25666;44.350;9.222;2022-12-29T12:25:18;7.57;;;2.17;;
32323;SDS011;25666;44.350;9.222;2022-12-29T12:27:48;10.88;;;2.70;;
32323;SDS011;25666;44.350;9.222;2022-12-29T12:30:21;14.75;;;2.88;;
32323;SDS011;25666;44.350;9.222;2022-12-29T12:41:41;9.85;;;3.17;;
32323;SDS011;25666;44.350;9.222;2022-12-29T12:49:20;15.15;;;3.28;;
32323;SDS011;25666;44.350;9.222;2022-12-29T13:00:22;18.83;;;5.00;;
32323;SDS011;25666;44.350;9.222;2022-12-29T13:08:49;16.77;;;3.35;;
32323;SDS011;25666;44.350;9.222;2022-12-29T13:14:21;15.00;;;3.60;;
32323;SDS011;25666;44.350;9.222;2022-12-29T13:17:16;16.50;;;2.95;;
32323;SDS011;25666;44.350;9.222;2022-12-29T13:22:45;10.50;;;2.72;;
32323;SDS011;25666;44.350;9.222;2022-12-29T13:28:20;16.05;;;3.40;;
32323;SDS011;25666;44.350;9.222;2022-12-29T13:31:09;16.52;;;3.08;;
32323;SDS011;25666;44.350;9.222;2022-12-29T13:33:58;16.42;;;3.53;;
32323;SDS011;25666;44.350;9.222;2022-12-29T13:36:40;9.68;;;2.95;;
32323;SDS011;25666;44.350;9.222;2022-12-29T13:39:19;12.30;;;3.50;;
32323;SDS011;25666;44.350;9.222;2022-12-29T13:41:50;13.63;;;2.83;;
32323;SDS011;25666;44.350;9.222;2022-12-29T13:44:20;17.88;;;3.45;;
32323;SDS011;25666;44.350;9.222;2022-12-29T13:46:47;20.30;;;3.33;;
32323;SDS011;25666;44.350;9.222;2022-12-29T13:49:15;11.38;;;4.10;;
32323;SDS011;25666;44.350;9.222;2022-12-29T13:57:41;14.57;;;3.20;;
32323;SDS011;25666;44.350;9.222;2022-12-29T14:00:30;20.02;;;3.10;;
32323;SDS011;25666;44.350;9.222;2022-12-29T14:05:37;26.30;;;4.38;;
32323;SDS011;25666;44.350;9.222;2022-12-29T14:08:13;15.88;;;3.47;;
32323;SDS011;25666;44.350;9.222;2022-12-29T14:10:49;15.75;;;3.42;;
32323;SDS011;25666;44.350;9.222;2022-12-29T14:13:17;15.20;;;3.90;;
32323;SDS011;25666;44.350;9.222;2022-12-29T14:15:50;14.93;;;3.63;;
32323;SDS011;25666;44.350;9.222;2022-12-29T14:18:19;20.83;;;3.95;;
32323;SDS011;25666;44.350;9.222;2022-12-29T14:21:10;17.38;;;3.58;;
32323;SDS011;25666;44.350;9.222;2022-12-29T14:23:48;15.35;;;3.42;;
32323;SDS011;25666;44.350;9.222;2022-12-29T14:26:17;11.65;;;2.75;;
32323;SDS011;25666;44.350;9.222;2022-12-29T14:28:55;15.02;;;4.75;;
32323;SDS011;25666;44.350;9.222;2022-12-29T14:36:36;14.63;;;3.40;;
32323;SDS011;25666;44.350;9.222;2022-12-29T14:39:04;21.90;;;3.60;;
32323;SDS011;25666;44.350;9.222;2022-12-29T14:42:05;20.25;;;3.13;;
32323;SDS011;25666;44.350;9.222;2022-12-29T14:44:34;16.48;;;4.55;;
32323;SDS011;25666;44.350;9.222;2022-12-29T14:47:16;20.30;;;3.17;;
32323;SDS011;25666;44.350;9.222;2022-12-29T14:49:45;27.52;;;4.05;;
32323;SDS011;25666;44.350;9.222;2022-12-29T14:52:16;19.38;;;5.20;;
32323;SDS011;25666;44.350;9.222;2022-12-29T14:54:47;14.07;;;3.60;;
32323;SDS011;25666;44.350;9.222;2022-12-29T14:57:19;15.68;;;3.22;;
32323;SDS011;25666;44.350;9.222;2022-12-29T14:59:45;18.73;;;3.95;;
32323;SDS011;25666;44.350;9.222;2022-12-29T15:02:14;11.38;;;3.20;;
32323;SDS011;25666;44.350;9.222;2022-12-29T15:04:43;13.25;;;3.17;;
32323;SDS011;25666;44.350;9.222;2022-12-29T15:07:11;6.40;;;2.60;;
32323;SDS011;25666;44.350;9.222;2022-12-29T15:09:39;13.60;;;3.55;;
32323;SDS011;25666;44.350;9.222;2022-12-29T15:15:17;21.00;;;3.42;;
32323;SDS011;25666;44.350;9.222;2022-12-29T15:17:44;14.80;;;3.42;;
32323;SDS011;25666;44.350;9.222;2022-12-29T15:20:21;13.55;;;3.50;;
32323;SDS011;25666;44.350;9.222;2022-12-29T15:23:04;22.10;;;3.95;;
32323;SDS011;25666;44.350;9.222;2022-12-29T15:25:35;16.38;;;3.20;;
32323;SDS011;25666;44.350;9.222;2022-12-29T15:28:03;13.10;;;3.70;;
32323;SDS011;25666;44.350;9.222;2022-12-29T15:30:31;14.10;;;3.60;;
32323;SDS011;25666;44.350;9.222;2022-12-29T15:32:57;16.45;;;3.83;;
32323;SDS011;25666;44.350;9.222;2022-12-29T15:35:24;18.63;;;3.78;;
32323;SDS011;25666;44.350;9.222;2022-12-29T15:37:58;18.15;;;4.65;;
32323;SDS011;25666;44.350;9.222;2022-12-29T15:40:26;16.33;;;3.35;;
32323;SDS011;25666;44.350;9.222;2022-12-29T15:45:47;26.33;;;5.70;;
32323;SDS011;25666;44.350;9.222;2022-12-29T15:48:20;20.45;;;5.68;;
32323;SDS011;25666;44.350;9.222;2022-12-29T15:50:48;24.50;;;4.45;;
32323;SDS011;25666;44.350;9.222;2022-12-29T15:53:18;23.08;;;3.95;;
32323;SDS011;25666;44.350;9.222;2022-12-29T15:55:44;14.85;;;4.05;;
32323;SDS011;25666;44.350;9.222;2022-12-29T15:58:22;14.15;;;5.93;;
32323;SDS011;25666;44.350;9.222;2022-12-29T16:00:54;19.15;;;3.63;;
32323;SDS011;25666;44.350;9.222;2022-12-29T16:03:22;25.60;;;4.05;;
32323;SDS011;25666;44.350;9.222;2022-12-29T16:08:54;13.95;;;3.95;;
32323;SDS011;25666;44.350;9.222;2022-12-29T16:11:32;16.73;;;4.80;;
32323;SDS011;25666;44.350;9.222;2022-12-29T16:14:13;20.23;;;4.22;;
32323;SDS011;25666;44.350;9.222;2022-12-29T16:16:43;20.75;;;4.85;;
32323;SDS011;25666;44.350;9.222;2022-12-29T16:19:32;17.80;;;4.15;;
32323;SDS011;25666;44.350;9.222;2022-12-29T16:22:02;36.35;;;6.03;;
32323;SDS011;25666;44.350;9.222;2022-12-29T16:24:36;15.57;;;3.80;;
32323;SDS011;25666;44.350;9.222;2022-12-29T16:27:08;11.95;;;3.55;;
32323;SDS011;25666;44.350;9.222;2022-12-29T16:29:45;13.23;;;4.03;;
32323;SDS011;25666;44.350;9.222;2022-12-29T16:32:24;15.38;;;3.67;;
32323;SDS011;25666;44.350;9.222;2022-12-29T16:34:52;17.02;;;4.72;;
32323;SDS011;25666;44.350;9.222;2022-12-29T16:37:32;15.30;;;4.20;;
32323;SDS011;25666;44.350;9.222;2022-12-29T16:42:46;11.77;;;3.83;;
32323;SDS011;25666;44.350;9.222;2022-12-29T16:50:31;20.23;;;3.92;;
32323;SDS011;25666;44.350;9.222;2022-12-29T16:53:02;13.35;;;3.80;;
32323;SDS011;25666;44.350;9.222;2022-12-29T16:55:29;18.88;;;4.38;;
32323;SDS011;25666;44.350;9.222;2022-12-29T16:57:54;19.67;;;3.92;;
32323;SDS011;25666;44.350;9.222;2022-12-29T17:00:29;18.83;;;4.63;;
32323;SDS011;25666;44.350;9.222;2022-12-29T17:03:00;10.32;;;3.30;;
32323;SDS011;25666;44.350;9.222;2022-12-29T17:05:27;11.98;;;3.53;;
32323;SDS011;25666;44.350;9.222;2022-12-29T17:07:52;11.75;;;3.58;;
32323;SDS011;25666;44.350;9.222;2022-12-29T17:10:19;14.07;;;3.60;;
32323;SDS011;25666;44.350;9.222;2022-12-29T17:12:45;23.10;;;6.45;;
32323;SDS011;25666;44.350;9.222;2022-12-29T17:15:18;7.88;;;3.05;;
32323;SDS011;25666;44.350;9.222;2022-12-29T17:17:53;11.55;;;3.17;;
32323;SDS011;25666;44.350;9.222;2022-12-29T17:20:21;9.50;;;3.50;;
32323;SDS011;25666;44.350;9.222;2022-12-29T17:22:49;26.20;;;5.32;;
32323;SDS011;25666;44.350;9.222;2022-12-29T17:25:22;12.82;;;4.57;;
32323;SDS011;25666;44.350;9.222;2022-12-29T17:27:55;10.13;;;2.53;;
32323;SDS011;25666;44.350;9.222;2022-12-29T17:30:24;18.58;;;3.75;;
32323;SDS011;25666;44.350;9.222;2022-12-29T17:32:52;11.48;;;3.42;;
32323;SDS011;25666;44.350;9.222;2022-12-29T17:35:23;24.20;;;4.18;;
32323;SDS011;25666;44.350;9.222;2022-12-29T17:37:49;16.10;;;5.40;;
32323;SDS011;25666;44.350;9.222;2022-12-29T17:42:43;18.33;;;5.03;;
32323;SDS011;25666;44.350;9.222;2022-12-29T17:45:12;15.80;;;3.97;;
32323;SDS011;25666;44.350;9.222;2022-12-29T17:47:39;24.17;;;4.32;;
32323;SDS011;25666;44.350;9.222;2022-12-29T17:50:05;16.00;;;3.40;;
32323;SDS011;25666;44.350;9.222;2022-12-29T17:52:38;14.18;;;3.33;;
32323;SDS011;25666;44.350;9.222;2022-12-29T17:55:05;17.13;;;3.38;;
32323;SDS011;25666;44.350;9.222;2022-12-29T17:57:30;13.85;;;3.92;;
32323;SDS011;25666;44.350;9.222;2022-12-29T17:59:56;20.08;;;4.53;;
32323;SDS011;25666;44.350;9.222;2022-12-29T18:02:29;16.92;;;3.40;;
32323;SDS011;25666;44.350;9.222;2022-12-29T18:04:56;16.95;;;4.20;;
32323;SDS011;25666;44.350;9.222;2022-12-29T18:07:24;9.40;;;2.97;;
32323;SDS011;25666;44.350;9.222;2022-12-29T18:09:51;28.17;;;4.57;;
32323;SDS011;25666;44.350;9.222;2022-12-29T18:14:57;20.13;;;4.70;;
32323;SDS011;25666;44.350;9.222;2022-12-29T18:17:23;18.83;;;4.70;;
32323;SDS011;25666;44.350;9.222;2022-12-29T18:19:48;19.48;;;4.97;;
32323;SDS011;25666;44.350;9.222;2022-12-29T18:22:16;17.35;;;5.05;;
32323;SDS011;25666;44.350;9.222;2022-12-29T18:24:41;16.77;;;4.97;;
32323;SDS011;25666;44.350;9.222;2022-12-29T18:27:11;16.08;;;5.10;;
32323;SDS011;25666;44.350;9.222;2022-12-29T18:29:38;20.58;;;4.80;;
32323;SDS011;25666;44.350;9.222;2022-12-29T18:32:04;13.27;;;4.57;;
32323;SDS011;25666;44.350;9.222;2022-12-29T18:34:34;14.88;;;4.05;;
32323;SDS011;25666;44.350;9.222;2022-12-29T18:36:59;13.00;;;4.50;;
32323;SDS011;25666;44.350;9.222;2022-12-29T18:39:27;13.38;;;3.55;;
32323;SDS011;25666;44.350;9.222;2022-12-29T18:41:52;13.40;;;4.05;;